createdAt,value
2023-06-04T00:00:20.956Z,7.75
2023-06-04T00:02:24.408Z,7.76
2023-06-04T00:04:28.015Z,7.70
2023-06-04T00:06:31.023Z,7.71
2023-06-04T00:08:33.949Z,7.78
2023-06-04T00:10:37.386Z,7.79
2023-06-04T00:12:40.340Z,7.75
2023-06-04T00:14:44.876Z,7.71
2023-06-04T00:16:47.903Z,7.71
2023-06-04T00:18:50.916Z,7.78
2023-06-04T00:20:54.116Z,7.78
2023-06-04T00:22:57.201Z,7.79
2023-06-04T00:25:00.186Z,7.76
2023-06-04T00:27:03.263Z,7.74
2023-06-04T00:29:06.208Z,7.75
2023-06-04T00:31:11.861Z,7.75
2023-06-04T00:33:14.944Z,7.74
2023-06-04T00:35:18.130Z,7.70
2023-06-04T00:37:21.763Z,7.73
2023-06-04T00:39:24.764Z,7.74
2023-06-04T00:41:27.857Z,7.73
2023-06-04T00:43:32.764Z,7.70
2023-06-04T00:45:36.245Z,7.68
2023-06-04T00:47:40.895Z,7.69
2023-06-04T00:49:44.604Z,7.72
2023-06-04T00:51:47.618Z,7.71
2023-06-04T00:53:51.266Z,7.68
2023-06-04T00:55:54.254Z,7.68
2023-06-04T00:57:57.102Z,7.70
2023-06-04T01:00:00.274Z,7.68
2023-06-04T01:02:08.426Z,7.66
2023-06-04T01:04:18.550Z,7.63
2023-06-04T01:06:30.013Z,7.63
2023-06-04T01:08:33.098Z,7.57
2023-06-04T01:10:35.930Z,7.60
2023-06-04T01:12:41.548Z,7.51
2023-06-04T01:14:45.362Z,7.56
2023-06-04T01:17:03.009Z,7.54
2023-06-04T01:19:26.317Z,7.60
2023-06-04T01:21:34.414Z,7.59
2023-06-04T01:23:47.217Z,7.55
2023-06-04T01:25:51.252Z,7.55
2023-06-04T01:27:58.553Z,7.55
2023-06-04T01:30:02.394Z,7.49
2023-06-04T01:32:07.297Z,7.52
2023-06-04T01:34:10.239Z,7.35
2023-06-04T01:36:14.642Z,7.41
2023-06-04T01:38:17.743Z,7.47
2023-06-04T01:40:20.829Z,7.46
2023-06-04T01:42:24.207Z,7.46
2023-06-04T01:44:27.083Z,7.50
2023-06-04T01:46:30.254Z,7.41
2023-06-04T01:48:36.404Z,7.25
2023-06-04T01:50:39.377Z,7.33
2023-06-04T01:52:43.776Z,7.34
2023-06-04T01:54:47.288Z,7.21
2023-06-04T01:56:50.275Z,7.03
2023-06-04T01:58:53.488Z,7.10
2023-06-04T02:00:56.573Z,7.10
2023-06-04T02:03:01.058Z,7.12
2023-06-04T02:05:05.189Z,7.01
2023-06-04T02:07:08.411Z,7.17
2023-06-04T02:09:13.544Z,6.97
2023-06-04T02:11:16.738Z,7.07
2023-06-04T02:13:19.916Z,7.09
2023-06-04T02:15:24.854Z,7.13
2023-06-04T02:17:27.879Z,7.14
2023-06-04T02:19:31.507Z,7.14
2023-06-04T02:21:34.806Z,7.03
2023-06-04T02:23:38.221Z,7.12
2023-06-04T02:25:42.787Z,7.15
2023-06-04T02:27:45.961Z,7.11
2023-06-04T02:29:49.289Z,7.12
2023-06-04T02:31:52.260Z,7.11
2023-06-04T02:33:57.262Z,7.10
2023-06-04T02:36:00.373Z,7.11
2023-06-04T02:38:03.282Z,7.00
2023-06-04T02:40:08.160Z,7.06
2023-06-04T02:42:12.859Z,7.10
2023-06-04T02:44:16.018Z,7.08
2023-06-04T02:46:19.060Z,7.08
2023-06-04T02:48:22.107Z,7.10
2023-06-04T02:50:25.055Z,7.01
2023-06-04T02:52:28.120Z,6.87
2023-06-04T02:54:31.318Z,6.99
2023-06-04T02:56:34.885Z,7.03
2023-06-04T02:58:41.327Z,7.05
2023-06-04T03:00:44.426Z,6.97
2023-06-04T03:02:48.681Z,6.86
2023-06-04T03:04:52.914Z,6.94
2023-06-04T03:06:59.195Z,6.95
2023-06-04T03:09:02.377Z,7.03
2023-06-04T03:11:05.724Z,7.09
2023-06-04T03:13:08.964Z,7.12
2023-06-04T03:15:13.488Z,7.18
2023-06-04T03:17:16.513Z,7.20
2023-06-04T03:19:19.564Z,7.22
2023-06-04T03:21:22.610Z,7.17
2023-06-04T03:23:25.680Z,7.10
2023-06-04T03:25:28.716Z,7.20
2023-06-04T03:27:33.591Z,7.23
2023-06-04T03:29:37.324Z,7.20
2023-06-04T03:31:46.461Z,7.13
2023-06-04T03:33:50.364Z,7.22
2023-06-04T03:35:53.994Z,7.04
2023-06-04T03:37:57.045Z,7.15
2023-06-04T03:40:00.015Z,7.24
2023-06-04T03:42:03.126Z,7.27
2023-06-04T03:44:06.317Z,7.33
2023-06-04T03:46:09.587Z,7.48
2023-06-04T03:48:15.245Z,7.74
2023-06-04T03:50:19.861Z,7.69
2023-06-04T03:52:23.202Z,7.68
2023-06-04T03:54:26.655Z,7.64
2023-06-04T03:56:29.734Z,7.69
2023-06-04T03:58:34.596Z,7.82
2023-06-04T04:00:37.577Z,8.05
2023-06-04T04:02:41.477Z,7.99
2023-06-04T04:04:51.366Z,7.94
2023-06-04T04:06:54.510Z,7.91
2023-06-04T04:08:57.857Z,7.93
2023-06-04T04:11:01.049Z,7.98
2023-06-04T04:13:04.830Z,7.98
2023-06-04T04:15:11.962Z,8.02
2023-06-04T04:17:15.461Z,8.09
2023-06-04T04:19:19.105Z,8.12
2023-06-04T04:21:24.545Z,8.14
2023-06-04T04:23:28.783Z,8.20
2023-06-04T04:25:33.850Z,8.22
2023-06-04T04:27:42.065Z,8.27
2023-06-04T04:29:48.884Z,8.32
2023-06-04T04:31:52.458Z,8.36
2023-06-04T04:33:58.428Z,8.35
2023-06-04T04:36:01.616Z,8.38
2023-06-04T04:38:07.235Z,8.48
2023-06-04T04:40:17.409Z,8.55
2023-06-04T04:42:23.648Z,8.63
2023-06-04T04:44:27.611Z,8.70
2023-06-04T04:46:30.891Z,8.76
2023-06-04T04:48:34.675Z,8.81
2023-06-04T04:50:37.962Z,8.84
2023-06-04T04:52:42.234Z,8.93
2023-06-04T04:54:46.775Z,8.88
2023-06-04T04:56:55.847Z,9.05
2023-06-04T04:59:08.588Z,9.17
2023-06-04T05:01:12.007Z,9.31
2023-06-04T05:03:16.743Z,9.40
2023-06-04T05:05:20.130Z,9.50
2023-06-04T05:07:26.307Z,9.60
2023-06-04T05:09:30.566Z,9.70
2023-06-04T05:11:35.147Z,9.78
2023-06-04T05:13:38.664Z,9.92
2023-06-04T05:15:43.708Z,10.02
2023-06-04T05:17:48.616Z,10.12
2023-06-04T05:19:54.209Z,10.21
2023-06-04T05:21:57.490Z,10.29
2023-06-04T05:24:00.722Z,10.39
2023-06-04T05:26:08.548Z,10.47
2023-06-04T05:28:14.631Z,10.60
2023-06-04T05:30:18.167Z,10.62
2023-06-04T05:32:24.343Z,10.69
2023-06-04T05:34:28.225Z,10.81
2023-06-04T05:36:32.831Z,10.89
2023-06-04T05:38:39.318Z,11.03
2023-06-04T05:40:47.730Z,11.16
2023-06-04T05:42:51.408Z,11.19
2023-06-04T05:44:56.329Z,11.32
2023-06-04T05:46:59.626Z,11.46
2023-06-04T05:49:02.897Z,11.66
2023-06-04T05:51:06.231Z,11.89
2023-06-04T05:53:09.508Z,12.13
2023-06-04T05:55:12.429Z,12.16
2023-06-04T05:57:16.435Z,12.20
2023-06-04T05:59:19.882Z,12.49
2023-06-04T06:01:24.834Z,12.58
2023-06-04T06:03:29.179Z,13.16
2023-06-04T06:05:33.146Z,13.67
2023-06-04T06:07:36.321Z,13.77
2023-06-04T06:09:39.354Z,13.67
2023-06-04T06:11:42.863Z,14.63
2023-06-04T06:13:46.401Z,15.30
2023-06-04T06:15:50.750Z,16.07
2023-06-04T06:17:55.306Z,16.93
2023-06-04T06:19:58.492Z,17.34
2023-06-04T06:22:01.503Z,17.54
2023-06-04T06:24:07.226Z,17.90
2023-06-04T06:26:10.648Z,17.67
2023-06-04T06:28:24.985Z,17.00
2023-06-04T06:30:29.092Z,18.27
2023-06-04T06:32:32.165Z,17.57
2023-06-04T06:34:36.916Z,17.90
2023-06-04T06:36:40.062Z,18.85
2023-06-04T06:38:42.948Z,18.48
2023-06-04T06:40:45.987Z,18.44
2023-06-04T06:42:51.218Z,18.84
2023-06-04T06:44:54.127Z,18.08
2023-06-04T06:46:57.142Z,17.54
2023-06-04T06:49:00.267Z,17.74
2023-06-04T06:51:04.909Z,18.58
2023-06-04T06:53:08.078Z,18.25
2023-06-04T06:55:10.993Z,18.18
2023-06-04T06:57:15.016Z,19.21
2023-06-04T06:59:18.028Z,19.28
2023-06-04T07:01:21.125Z,18.48
2023-06-04T07:03:24.325Z,18.43
2023-06-04T07:05:27.473Z,18.70
2023-06-04T07:07:32.666Z,18.97
2023-06-04T07:09:36.112Z,19.03
2023-06-04T07:11:39.245Z,19.30
2023-06-04T07:13:42.263Z,19.11
2023-06-04T07:15:45.219Z,18.78
2023-06-04T07:17:48.269Z,20.52
2023-06-04T07:19:51.144Z,19.84
2023-06-04T07:21:56.104Z,20.18
2023-06-04T07:24:00.698Z,20.25
2023-06-04T07:26:04.123Z,20.29
2023-06-04T07:28:07.412Z,19.53
2023-06-04T07:30:11.790Z,20.46
2023-06-04T07:32:14.778Z,20.33
2023-06-04T07:34:17.840Z,20.63
2023-06-04T07:36:22.042Z,21.20
2023-06-04T07:38:25.053Z,21.02
2023-06-04T07:40:29.643Z,20.77
2023-06-04T07:42:32.613Z,21.43
2023-06-04T07:44:35.631Z,20.79
2023-06-04T07:46:38.832Z,20.81
2023-06-04T07:48:41.782Z,20.58
2023-06-04T07:50:45.074Z,20.61
2023-06-04T07:52:47.952Z,20.88
2023-06-04T07:54:51.032Z,20.48
2023-06-04T07:56:57.507Z,20.42
2023-06-04T07:59:00.510Z,21.22
2023-06-04T08:01:03.769Z,20.61
2023-06-04T08:03:06.924Z,20.77
2023-06-04T08:05:10.292Z,20.81
2023-06-04T08:07:13.402Z,20.67
2023-06-04T08:09:16.728Z,21.95
2023-06-04T08:11:20.047Z,21.43
2023-06-04T08:13:24.441Z,21.33
2023-06-04T08:15:27.532Z,21.25
2023-06-04T08:17:50.465Z,20.43
2023-06-04T08:19:55.730Z,20.91
2023-06-04T08:22:18.721Z,21.35
2023-06-04T08:24:28.285Z,21.40
2023-06-04T08:26:51.664Z,21.06
2023-06-04T08:29:16.373Z,21.37
2023-06-04T08:31:21.661Z,20.63
2023-06-04T08:33:41.032Z,21.23
2023-06-04T08:35:50.642Z,21.93
2023-06-04T08:37:53.651Z,21.65
2023-06-04T08:39:56.646Z,21.45
2023-06-04T08:42:05.174Z,21.80
2023-06-04T08:44:08.376Z,21.37
2023-06-04T08:46:13.710Z,21.90
2023-06-04T08:48:19.850Z,22.33
2023-06-04T08:50:25.976Z,21.39
2023-06-04T08:52:29.546Z,21.53
2023-06-04T08:54:33.886Z,21.31
2023-06-04T08:56:37.810Z,22.01
2023-06-04T08:58:43.466Z,21.85
2023-06-04T09:00:46.044Z,22.02
2023-06-04T09:02:52.511Z,22.69
2023-06-04T09:04:56.033Z,22.65
2023-06-04T09:07:03.924Z,22.85
2023-06-04T09:09:10.862Z,22.80
2023-06-04T09:11:17.492Z,22.96
2023-06-04T09:13:23.203Z,22.84
2023-06-04T09:15:26.356Z,22.85
2023-06-04T09:17:30.107Z,22.80
2023-06-04T09:19:34.624Z,23.15
2023-06-04T09:21:48.334Z,23.57
2023-06-04T09:23:52.593Z,23.08
2023-06-04T09:25:55.777Z,22.84
2023-06-04T09:28:07.449Z,23.01
2023-06-04T09:30:11.296Z,23.29
2023-06-04T09:32:14.261Z,23.45
2023-06-04T09:34:17.435Z,23.68
2023-06-04T09:36:22.014Z,23.08
2023-06-04T09:38:25.186Z,23.30
2023-06-04T09:40:37.714Z,23.21
2023-06-04T09:42:44.984Z,23.31
2023-06-04T09:44:48.016Z,21.60
2023-06-04T09:46:55.942Z,22.16
2023-06-04T09:49:04.028Z,22.59
2023-06-04T09:51:11.285Z,23.06
2023-06-04T09:53:21.711Z,22.97
2023-06-04T09:55:24.825Z,23.67
2023-06-04T09:57:31.924Z,23.32
2023-06-04T09:59:41.471Z,23.60
2023-06-04T10:01:45.756Z,23.28
2023-06-04T10:03:51.991Z,23.83
2023-06-04T10:05:58.688Z,23.52
2023-06-04T10:08:05.589Z,23.57
2023-06-04T10:10:22.699Z,24.51
2023-06-04T10:12:30.518Z,24.50
2023-06-04T10:14:38.956Z,24.27
2023-06-04T10:16:43.052Z,24.17
2023-06-04T10:18:47.195Z,23.85
2023-06-04T10:20:51.082Z,24.09
2023-06-04T10:22:54.834Z,24.18
2023-06-04T10:24:58.716Z,24.11
2023-06-04T10:27:11.444Z,23.70
2023-06-04T10:29:15.928Z,24.16
2023-06-04T10:31:19.602Z,24.48
2023-06-04T10:33:25.680Z,23.76
2023-06-04T10:35:32.933Z,24.08
2023-06-04T10:37:35.897Z,25.02
2023-06-04T10:39:38.998Z,24.39
2023-06-04T10:41:42.374Z,23.72
2023-06-04T10:43:46.989Z,24.23
2023-06-04T10:45:50.093Z,24.07
2023-06-04T10:48:01.783Z,24.05
2023-06-04T10:50:11.538Z,23.92
2023-06-04T10:52:14.722Z,24.18
2023-06-04T10:54:26.277Z,24.53
2023-06-04T10:56:29.879Z,24.59
2023-06-04T10:58:34.008Z,24.03
2023-06-04T11:00:39.463Z,24.40
2023-06-04T11:02:52.865Z,24.16
2023-06-04T11:05:04.654Z,24.69
2023-06-04T11:07:11.736Z,24.90
2023-06-04T11:09:20.270Z,25.12
2023-06-04T11:11:23.354Z,24.99
2023-06-04T11:13:31.113Z,25.00
2023-06-04T11:15:43.408Z,24.74
2023-06-04T11:17:54.119Z,24.61
2023-06-04T11:19:57.101Z,24.20
2023-06-04T11:22:00.490Z,24.81
2023-06-04T11:24:04.624Z,25.02
2023-06-04T11:26:08.083Z,25.13
2023-06-04T11:28:17.242Z,25.32
2023-06-04T11:30:20.640Z,25.41
2023-06-04T11:32:26.097Z,25.43
2023-06-04T11:34:30.412Z,25.00
2023-06-04T11:36:33.630Z,24.80
2023-06-04T11:38:36.861Z,25.10
2023-06-04T11:40:39.751Z,24.96
2023-06-04T11:42:44.976Z,24.83
2023-06-04T11:44:50.233Z,24.49
2023-06-04T11:46:55.245Z,24.21
2023-06-04T11:49:00.333Z,24.42
2023-06-04T11:51:09.606Z,24.65
2023-06-04T11:53:12.795Z,24.92
2023-06-04T11:55:18.936Z,25.09
2023-06-04T11:57:22.045Z,25.45
2023-06-04T11:59:25.499Z,25.07
2023-06-04T12:01:31.872Z,24.79
2023-06-04T12:03:38.511Z,24.98
2023-06-04T12:05:43.062Z,25.27
2023-06-04T12:07:46.515Z,24.66
2023-06-04T12:09:49.386Z,24.75
2023-06-04T12:11:58.860Z,24.95
2023-06-04T12:14:04.884Z,25.37
2023-06-04T12:16:07.970Z,25.74
2023-06-04T12:18:11.829Z,25.64
2023-06-04T12:20:15.126Z,25.09
2023-06-04T12:22:20.360Z,25.28
2023-06-04T12:24:23.479Z,25.14
2023-06-04T12:26:30.195Z,25.21
2023-06-04T12:28:33.225Z,25.23
2023-06-04T12:30:39.955Z,24.79
2023-06-04T12:32:43.830Z,25.10
2023-06-04T12:34:47.206Z,24.80
2023-06-04T12:36:50.138Z,25.35
2023-06-04T12:38:54.676Z,25.35
2023-06-04T12:40:57.825Z,25.01
2023-06-04T12:43:01.384Z,25.20
2023-06-04T12:45:05.265Z,25.03
2023-06-04T12:47:08.744Z,25.56
2023-06-04T12:49:11.877Z,25.56
2023-06-04T12:51:14.900Z,25.79
2023-06-04T12:53:17.757Z,25.16
2023-06-04T12:55:22.455Z,25.13
2023-06-04T12:57:25.694Z,24.97
2023-06-04T12:59:29.657Z,25.17
2023-06-04T13:01:32.632Z,25.25
2023-06-04T13:03:38.984Z,24.85
2023-06-04T13:05:42.046Z,25.22
2023-06-04T13:07:45.024Z,25.44
2023-06-04T13:09:47.972Z,25.27
2023-06-04T13:11:52.564Z,25.06
2023-06-04T13:13:55.524Z,25.62
2023-06-04T13:15:58.635Z,25.44
2023-06-04T13:18:01.690Z,25.43
2023-06-04T13:20:05.166Z,25.56
2023-06-04T13:22:08.088Z,25.26
2023-06-04T13:24:12.328Z,25.08
2023-06-04T13:26:15.285Z,25.59
2023-06-04T13:28:19.905Z,24.93
2023-06-04T13:30:23.655Z,25.11
2023-06-04T13:32:26.841Z,25.30
2023-06-04T13:34:29.965Z,25.23
2023-06-04T13:36:32.963Z,25.53
2023-06-04T13:38:35.986Z,25.17
2023-06-04T13:40:39.394Z,25.02
2023-06-04T13:42:44.208Z,24.89
2023-06-04T13:44:48.649Z,24.91
2023-06-04T13:46:51.805Z,25.52
2023-06-04T13:48:54.845Z,25.25
2023-06-04T13:50:57.783Z,25.27
2023-06-04T13:53:01.004Z,25.27
2023-06-04T13:55:04.124Z,25.06
2023-06-04T13:57:08.556Z,25.24
2023-06-04T13:59:11.559Z,25.41
2023-06-04T14:01:17.914Z,25.45
2023-06-04T14:03:21.097Z,25.43
2023-06-04T14:05:26.345Z,25.62
2023-06-04T14:07:29.511Z,25.54
2023-06-04T14:09:32.515Z,25.50
2023-06-04T14:11:35.534Z,25.28
2023-06-04T14:13:39.748Z,25.55
2023-06-04T14:15:43.115Z,25.57
2023-06-04T14:17:49.016Z,25.21
2023-06-04T14:19:51.988Z,24.76
2023-06-04T14:21:55.345Z,25.05
2023-06-04T14:23:58.393Z,25.13
2023-06-04T14:26:01.758Z,25.12
2023-06-04T14:28:04.693Z,25.47
2023-06-04T14:30:09.076Z,24.98
2023-06-04T14:32:11.956Z,24.57
2023-06-04T14:34:16.749Z,25.14
2023-06-04T14:36:19.787Z,25.11
2023-06-04T14:38:23.269Z,24.69
2023-06-04T14:40:26.697Z,24.74
2023-06-04T14:42:29.841Z,24.81
2023-06-04T14:44:33.376Z,24.96
2023-06-04T14:46:36.458Z,24.51
2023-06-04T14:48:39.532Z,25.00
2023-06-04T14:50:44.355Z,25.17
2023-06-04T14:52:47.592Z,24.41
2023-06-04T14:54:52.566Z,24.41
2023-06-04T14:56:57.427Z,24.81
2023-06-04T14:59:02.076Z,24.44
2023-06-04T15:01:05.254Z,24.53
2023-06-04T15:03:08.358Z,24.23
2023-06-04T15:05:11.446Z,24.48
2023-06-04T15:07:16.128Z,24.62
2023-06-04T15:09:19.402Z,24.27
2023-06-04T15:11:22.719Z,23.94
2023-06-04T15:13:25.766Z,24.12
2023-06-04T15:15:28.772Z,23.98
2023-06-04T15:17:31.726Z,24.05
2023-06-04T15:19:34.796Z,23.66
2023-06-04T15:21:37.764Z,23.63
2023-06-04T15:23:42.337Z,24.09
2023-06-04T15:25:45.327Z,24.18
2023-06-04T15:27:48.621Z,24.23
2023-06-04T15:29:51.963Z,24.05
2023-06-04T15:31:54.968Z,23.70
2023-06-04T15:33:57.927Z,23.67
2023-06-04T15:36:01.155Z,23.54
2023-06-04T15:38:04.060Z,23.15
2023-06-04T15:40:10.937Z,23.23
2023-06-04T15:42:14.025Z,23.28
2023-06-04T15:44:17.097Z,23.29
2023-06-04T15:46:20.122Z,23.46
2023-06-04T15:48:23.136Z,23.22
2023-06-04T15:50:26.097Z,23.00
2023-06-04T15:52:29.046Z,23.12
2023-06-04T15:54:45.335Z,23.16
2023-06-04T15:56:51.096Z,23.45
2023-06-04T15:58:54.007Z,23.14
2023-06-04T16:00:58.320Z,23.25
2023-06-04T16:03:02.314Z,23.16
2023-06-04T16:05:06.376Z,23.20
2023-06-04T16:07:09.370Z,23.23
2023-06-04T16:09:12.508Z,23.31
2023-06-04T16:11:15.607Z,23.32
2023-06-04T16:13:20.262Z,23.20
2023-06-04T16:15:23.329Z,23.17
2023-06-04T16:17:26.349Z,23.31
2023-06-04T16:19:29.326Z,23.29
2023-06-04T16:21:32.267Z,23.26
2023-06-04T16:23:35.270Z,22.77
2023-06-04T16:25:38.927Z,22.76
2023-06-04T16:27:41.855Z,22.90
2023-06-04T16:29:46.891Z,22.74
2023-06-04T16:31:49.996Z,22.65
2023-06-04T16:33:53.038Z,21.86
2023-06-04T16:35:55.957Z,22.15
2023-06-04T16:37:59.186Z,22.17
2023-06-04T16:40:02.169Z,22.18
2023-06-04T16:42:06.209Z,22.34
2023-06-04T16:44:09.133Z,21.95
2023-06-04T16:46:13.604Z,22.12
2023-06-04T16:48:17.058Z,22.17
2023-06-04T16:50:20.320Z,22.10
2023-06-04T16:52:23.459Z,21.82
2023-06-04T16:54:26.752Z,21.67
2023-06-04T16:56:29.705Z,21.67
2023-06-04T16:58:34.946Z,21.23
2023-06-04T17:00:37.906Z,20.97
2023-06-04T17:02:42.544Z,21.01
2023-06-04T17:04:45.584Z,21.27
2023-06-04T17:06:48.821Z,21.29
2023-06-04T17:08:51.694Z,21.45
2023-06-04T17:10:54.766Z,20.97
2023-06-04T17:12:57.906Z,20.90
2023-06-04T17:15:01.035Z,20.53
2023-06-04T17:17:04.651Z,20.71
2023-06-04T17:19:09.148Z,20.64
2023-06-04T17:21:13.019Z,20.74
2023-06-04T17:23:22.706Z,20.80
2023-06-04T17:25:25.783Z,20.63
2023-06-04T17:27:28.816Z,20.64
2023-06-04T17:29:31.716Z,20.53
2023-06-04T17:31:34.857Z,20.21
2023-06-04T17:33:37.827Z,20.13
2023-06-04T17:35:42.423Z,20.23
2023-06-04T17:37:45.397Z,20.09
2023-06-04T17:39:49.204Z,20.05
2023-06-04T17:41:52.081Z,19.79
2023-06-04T17:43:56.317Z,19.48
2023-06-04T17:45:59.812Z,19.57
2023-06-04T17:48:02.956Z,19.65
2023-06-04T17:50:12.425Z,19.58
2023-06-04T17:52:17.447Z,19.30
2023-06-04T17:54:20.337Z,19.22
2023-06-04T17:56:23.278Z,19.29
2023-06-04T17:58:26.361Z,19.13
2023-06-04T18:00:30.041Z,19.03
2023-06-04T18:02:32.962Z,18.63
2023-06-04T18:04:36.157Z,18.45
2023-06-04T18:06:39.346Z,18.60
2023-06-04T18:08:44.026Z,18.69
2023-06-04T18:10:47.257Z,18.69
2023-06-04T18:12:50.653Z,18.44
2023-06-04T18:14:53.526Z,18.40
2023-06-04T18:16:56.470Z,18.38
2023-06-04T18:18:59.273Z,18.39
2023-06-04T18:21:02.177Z,18.09
2023-06-04T18:23:06.598Z,17.84
2023-06-04T18:25:11.505Z,17.68
2023-06-04T18:27:14.357Z,17.48
2023-06-04T18:29:17.303Z,17.60
2023-06-04T18:31:20.131Z,17.66
2023-06-04T18:33:26.003Z,17.71
2023-06-04T18:35:28.934Z,17.60
2023-06-04T18:37:31.955Z,17.55
2023-06-04T18:39:34.843Z,17.49
2023-06-04T18:41:40.774Z,17.27
2023-06-04T18:43:43.704Z,17.24
2023-06-04T18:45:46.752Z,16.88
2023-06-04T18:47:49.767Z,16.90
2023-06-04T18:49:52.947Z,16.80
2023-06-04T18:51:56.053Z,16.69
2023-06-04T18:53:59.087Z,16.69
2023-06-04T18:56:03.936Z,16.42
2023-06-04T18:58:10.198Z,15.99
2023-06-04T19:00:14.961Z,15.96
2023-06-04T19:02:18.310Z,15.78
2023-06-04T19:04:21.420Z,15.56
2023-06-04T19:06:24.767Z,15.39
2023-06-04T19:08:27.685Z,14.95
2023-06-04T19:10:30.725Z,14.94
2023-06-04T19:12:33.861Z,14.71
2023-06-04T19:14:38.769Z,14.82
2023-06-04T19:16:43.018Z,14.88
2023-06-04T19:18:46.233Z,14.70
2023-06-04T19:20:49.253Z,14.79
2023-06-04T19:22:52.279Z,14.80
2023-06-04T19:24:55.209Z,14.65
2023-06-04T19:26:58.335Z,14.62
2023-06-04T19:29:01.490Z,14.50
2023-06-04T19:31:06.286Z,14.52
2023-06-04T19:33:11.309Z,14.28
2023-06-04T19:35:14.463Z,13.90
2023-06-04T19:37:17.365Z,13.92
2023-06-04T19:39:20.875Z,13.93
2023-06-04T19:41:23.836Z,14.03
2023-06-04T19:43:26.937Z,14.11
2023-06-04T19:45:29.882Z,14.01
2023-06-04T19:47:34.391Z,13.79
2023-06-04T19:49:37.432Z,13.46
2023-06-04T19:51:40.409Z,13.48
2023-06-04T19:53:43.243Z,13.38
2023-06-04T19:55:46.362Z,13.45
2023-06-04T19:57:49.402Z,13.35
2023-06-04T19:59:52.485Z,13.49
2023-06-04T20:01:56.072Z,13.62
2023-06-04T20:04:00.794Z,13.57
2023-06-04T20:06:04.064Z,13.47
2023-06-04T20:08:07.712Z,13.35
2023-06-04T20:10:11.721Z,13.26
2023-06-04T20:12:16.444Z,13.30
2023-06-04T20:14:20.465Z,13.33
2023-06-04T20:16:24.714Z,13.42
2023-06-04T20:18:30.201Z,13.42
2023-06-04T20:20:34.786Z,13.03
2023-06-04T20:22:37.660Z,13.14
2023-06-04T20:24:41.714Z,12.97
2023-06-04T20:26:44.766Z,13.02
2023-06-04T20:28:48.363Z,12.96
2023-06-04T20:30:51.788Z,12.96
2023-06-04T20:32:54.915Z,12.97
2023-06-04T20:34:58.785Z,12.68
2023-06-04T20:37:04.455Z,12.51
2023-06-04T20:39:07.821Z,12.69
2023-06-04T20:41:10.850Z,12.74
2023-06-04T20:43:15.704Z,12.48
2023-06-04T20:45:18.966Z,12.58
2023-06-04T20:47:21.942Z,12.59
2023-06-04T20:49:25.065Z,12.65
2023-06-04T20:51:27.923Z,12.68
2023-06-04T20:53:32.615Z,12.63
2023-06-04T20:55:36.533Z,12.32
2023-06-04T20:57:39.544Z,11.98
2023-06-04T20:59:42.605Z,11.82
2023-06-04T21:01:45.942Z,11.73
2023-06-04T21:03:49.238Z,11.79
2023-06-04T21:05:52.395Z,11.98
2023-06-04T21:07:59.836Z,12.12
2023-06-04T21:10:06.807Z,12.13
2023-06-04T21:12:10.099Z,11.96
2023-06-04T21:14:13.036Z,11.73
2023-06-04T21:16:15.937Z,11.52
2023-06-04T21:18:19.186Z,11.50
2023-06-04T21:20:22.297Z,11.43
2023-06-04T21:22:25.186Z,11.41
2023-06-04T21:24:28.243Z,11.42
2023-06-04T21:26:33.208Z,11.36
2023-06-04T21:28:36.217Z,11.55
2023-06-04T21:30:39.302Z,11.67
2023-06-04T21:32:44.030Z,11.55
2023-06-04T21:34:47.107Z,11.46
2023-06-04T21:36:50.242Z,11.21
2023-06-04T21:38:53.270Z,11.10
2023-06-04T21:40:56.219Z,11.15
2023-06-04T21:43:01.000Z,11.36
2023-06-04T21:45:04.692Z,11.42
2023-06-04T21:47:08.299Z,11.39
2023-06-04T21:49:11.511Z,11.23
2023-06-04T21:51:14.592Z,11.01
2023-06-04T21:53:17.649Z,10.78
2023-06-04T21:55:20.887Z,10.79
2023-06-04T21:57:24.685Z,10.88
2023-06-04T21:59:29.882Z,10.82
2023-06-04T22:01:33.061Z,10.94
2023-06-04T22:03:36.380Z,11.01
2023-06-04T22:05:39.416Z,11.13
2023-06-04T22:07:42.537Z,11.21
2023-06-04T22:09:45.633Z,11.26
2023-06-04T22:11:48.854Z,11.25
2023-06-04T22:13:51.764Z,11.09
2023-06-04T22:15:56.389Z,10.86
2023-06-04T22:18:00.948Z,10.77
2023-06-04T22:20:04.681Z,10.49
2023-06-04T22:22:07.692Z,10.36
2023-06-04T22:24:10.903Z,10.33
2023-06-04T22:26:28.427Z,10.58
2023-06-04T22:28:37.383Z,10.70
2023-06-04T22:30:40.376Z,10.49
2023-06-04T22:32:45.199Z,10.27
2023-06-04T22:34:48.866Z,10.21
2023-06-04T22:36:52.017Z,10.19
2023-06-04T22:38:55.143Z,10.27
2023-06-04T22:40:58.146Z,10.41
2023-06-04T22:43:02.755Z,10.12
2023-06-04T22:45:06.697Z,10.13
2023-06-04T22:47:09.664Z,10.01
2023-06-04T22:49:15.963Z,10.17
2023-06-04T22:51:20.007Z,10.36
2023-06-04T22:53:24.389Z,10.41
2023-06-04T22:55:27.562Z,9.96
2023-06-04T22:57:31.656Z,9.79
2023-06-04T22:59:34.523Z,9.62
2023-06-04T23:01:38.071Z,9.59
2023-06-04T23:03:41.778Z,9.61
2023-06-04T23:05:46.394Z,9.72
2023-06-04T23:07:49.894Z,9.55
2023-06-04T23:09:52.873Z,9.47
2023-06-04T23:11:56.066Z,9.55
2023-06-04T23:13:59.038Z,9.67
2023-06-04T23:16:02.157Z,9.75
2023-06-04T23:18:05.377Z,9.77
2023-06-04T23:20:10.439Z,9.50
2023-06-04T23:22:15.396Z,9.44
2023-06-04T23:24:18.438Z,9.38
2023-06-04T23:26:21.446Z,9.43
2023-06-04T23:28:24.456Z,9.58
2023-06-04T23:30:27.638Z,9.68
2023-06-04T23:32:30.788Z,9.67
2023-06-04T23:34:33.859Z,9.55
2023-06-04T23:36:37.473Z,9.68
2023-06-04T23:38:42.025Z,9.71
2023-06-04T23:40:45.173Z,9.62
2023-06-04T23:42:48.213Z,9.42
2023-06-04T23:44:51.445Z,9.19
2023-06-04T23:46:54.490Z,9.34
2023-06-04T23:48:57.495Z,9.43
2023-06-04T23:51:00.451Z,9.43
2023-06-04T23:53:03.451Z,9.31
2023-06-04T23:55:08.663Z,9.38
2023-06-04T23:57:12.080Z,9.23
2023-06-04T23:59:15.381Z,9.26
